sensor_id;sensor_type;location;lat;lon;timestamp;P1;durP1;ratioP1;P2;durP2;ratioP2
19609;SDS011;9952;47.122;-1.638;2023-01-13T00:04:18;15.17;;;1.80;;
19609;SDS011;9952;47.122;-1.638;2023-01-13T00:08:59;15.60;;;2.97;;
19609;SDS011;9952;47.122;-1.638;2023-01-13T00:13:40;20.53;;;3.17;;
19609;SDS011;9952;47.122;-1.638;2023-01-13T00:18:21;22.43;;;2.90;;
19609;SDS011;9952;47.122;-1.638;2023-01-13T00:23:02;19.23;;;3.23;;
19609;SDS011;9952;47.122;-1.638;2023-01-13T00:27:43;21.30;;;2.90;;
19609;SDS011;9952;47.122;-1.638;2023-01-13T00:32:25;28.10;;;3.23;;
19609;SDS011;9952;47.122;-1.638;2023-01-13T00:37:06;21.20;;;3.67;;
19609;SDS011;9952;47.122;-1.638;2023-01-13T00:41:52;30.77;;;3.17;;
19609;SDS011;9952;47.122;-1.638;2023-01-13T00:46:51;17.70;;;2.97;;
19609;SDS011;9952;47.122;-1.638;2023-01-13T00:51:32;19.50;;;3.23;;
19609;SDS011;9952;47.122;-1.638;2023-01-13T00:56:15;26.73;;;3.13;;
19609;SDS011;9952;47.122;-1.638;2023-01-13T01:01:04;21.87;;;2.90;;
19609;SDS011;9952;47.122;-1.638;2023-01-13T01:05:47;20.73;;;3.00;;
19609;SDS011;9952;47.122;-1.638;2023-01-13T01:10:28;25.70;;;3.53;;
19609;SDS011;9952;47.122;-1.638;2023-01-13T01:15:09;23.93;;;3.07;;
19609;SDS011;9952;47.122;-1.638;2023-01-13T01:19:51;25.60;;;3.90;;
19609;SDS011;9952;47.122;-1.638;2023-01-13T01:24:32;28.03;;;3.10;;
19609;SDS011;9952;47.122;-1.638;2023-01-13T01:29:13;17.80;;;2.80;;
19609;SDS011;9952;47.122;-1.638;2023-01-13T01:33:54;27.13;;;3.77;;
19609;SDS011;9952;47.122;-1.638;2023-01-13T01:38:35;15.67;;;1.80;;
19609;SDS011;9952;47.122;-1.638;2023-01-13T01:43:18;7.40;;;1.17;;
19609;SDS011;9952;47.122;-1.638;2023-01-13T01:48:18;20.57;;;1.97;;
19609;SDS011;9952;47.122;-1.638;2023-01-13T01:53:01;9.83;;;1.90;;
19609;SDS011;9952;47.122;-1.638;2023-01-13T01:57:52;11.57;;;1.50;;
19609;SDS011;9952;47.122;-1.638;2023-01-13T02:02:44;11.00;;;1.80;;
19609;SDS011;9952;47.122;-1.638;2023-01-13T02:07:28;18.27;;;2.20;;
19609;SDS011;9952;47.122;-1.638;2023-01-13T02:12:12;19.87;;;2.80;;
19609;SDS011;9952;47.122;-1.638;2023-01-13T02:37:21;24.47;;;2.57;;
19609;SDS011;9952;47.122;-1.638;2023-01-13T02:42:09;22.90;;;2.83;;
19609;SDS011;9952;47.122;-1.638;2023-01-13T02:47:22;24.37;;;3.37;;
19609;SDS011;9952;47.122;-1.638;2023-01-13T02:52:18;20.67;;;3.40;;
19609;SDS011;9952;47.122;-1.638;2023-01-13T02:57:19;22.50;;;3.57;;
19609;SDS011;9952;47.122;-1.638;2023-01-13T03:02:01;25.07;;;3.60;;
19609;SDS011;9952;47.122;-1.638;2023-01-13T03:06:51;30.83;;;4.27;;
19609;SDS011;9952;47.122;-1.638;2023-01-13T03:11:51;30.47;;;3.77;;
19609;SDS011;9952;47.122;-1.638;2023-01-13T03:16:58;31.47;;;3.93;;
19609;SDS011;9952;47.122;-1.638;2023-01-13T03:27:19;24.50;;;3.97;;
19609;SDS011;9952;47.122;-1.638;2023-01-13T03:32:31;27.10;;;3.87;;
19609;SDS011;9952;47.122;-1.638;2023-01-13T03:37:20;30.47;;;4.20;;
19609;SDS011;9952;47.122;-1.638;2023-01-13T03:42:08;30.23;;;4.27;;
19609;SDS011;9952;47.122;-1.638;2023-01-13T03:47:02;27.63;;;3.77;;
19609;SDS011;9952;47.122;-1.638;2023-01-13T03:51:50;26.20;;;4.30;;
19609;SDS011;9952;47.122;-1.638;2023-01-13T03:56:40;25.20;;;3.90;;
19609;SDS011;9952;47.122;-1.638;2023-01-13T04:06:38;29.90;;;3.30;;
19609;SDS011;9952;47.122;-1.638;2023-01-13T04:11:45;31.00;;;3.47;;
19609;SDS011;9952;47.122;-1.638;2023-01-13T04:16:33;22.43;;;3.20;;
19609;SDS011;9952;47.122;-1.638;2023-01-13T04:21:15;21.83;;;3.13;;
19609;SDS011;9952;47.122;-1.638;2023-01-13T04:25:56;25.17;;;2.93;;
19609;SDS011;9952;47.122;-1.638;2023-01-13T04:30:39;33.47;;;4.63;;
19609;SDS011;9952;47.122;-1.638;2023-01-13T04:35:22;25.33;;;3.90;;
19609;SDS011;9952;47.122;-1.638;2023-01-13T04:40:03;30.87;;;3.60;;
19609;SDS011;9952;47.122;-1.638;2023-01-13T04:44:45;25.07;;;4.10;;
19609;SDS011;9952;47.122;-1.638;2023-01-13T04:49:27;28.53;;;3.73;;
19609;SDS011;9952;47.122;-1.638;2023-01-13T04:54:09;15.80;;;2.80;;
19609;SDS011;9952;47.122;-1.638;2023-01-13T04:58:51;25.67;;;4.00;;
19609;SDS011;9952;47.122;-1.638;2023-01-13T05:03:32;20.40;;;2.50;;
19609;SDS011;9952;47.122;-1.638;2023-01-13T05:08:13;12.97;;;1.57;;
19609;SDS011;9952;47.122;-1.638;2023-01-13T05:12:55;12.40;;;1.90;;
19609;SDS011;9952;47.122;-1.638;2023-01-13T05:17:54;13.83;;;1.60;;
19609;SDS011;9952;47.122;-1.638;2023-01-13T05:22:36;16.80;;;1.97;;
19609;SDS011;9952;47.122;-1.638;2023-01-13T05:27:35;11.70;;;1.30;;
19609;SDS011;9952;47.122;-1.638;2023-01-13T05:32:18;10.80;;;1.77;;
19609;SDS011;9952;47.122;-1.638;2023-01-13T05:37:00;14.40;;;2.10;;
19609;SDS011;9952;47.122;-1.638;2023-01-13T05:41:47;11.13;;;1.60;;
19609;SDS011;9952;47.122;-1.638;2023-01-13T05:46:47;15.60;;;1.57;;
19609;SDS011;9952;47.122;-1.638;2023-01-13T05:51:29;21.93;;;2.73;;
19609;SDS011;9952;47.122;-1.638;2023-01-13T05:56:10;15.77;;;2.30;;
19609;SDS011;9952;47.122;-1.638;2023-01-13T06:00:52;11.37;;;1.60;;
19609;SDS011;9952;47.122;-1.638;2023-01-13T06:05:38;20.93;;;2.23;;
19609;SDS011;9952;47.122;-1.638;2023-01-13T06:10:19;21.90;;;2.90;;
19609;SDS011;9952;47.122;-1.638;2023-01-13T06:15:00;16.67;;;2.90;;
19609;SDS011;9952;47.122;-1.638;2023-01-13T06:19:42;28.20;;;3.10;;
19609;SDS011;9952;47.122;-1.638;2023-01-13T06:24:24;24.43;;;3.80;;
19609;SDS011;9952;47.122;-1.638;2023-01-13T06:29:05;24.10;;;3.53;;
19609;SDS011;9952;47.122;-1.638;2023-01-13T06:33:49;26.30;;;3.40;;
19609;SDS011;9952;47.122;-1.638;2023-01-13T06:38:35;22.63;;;3.23;;
19609;SDS011;9952;47.122;-1.638;2023-01-13T06:43:18;23.77;;;4.00;;
19609;SDS011;9952;47.122;-1.638;2023-01-13T06:48:01;35.97;;;5.00;;
19609;SDS011;9952;47.122;-1.638;2023-01-13T06:52:42;24.93;;;3.90;;
19609;SDS011;9952;47.122;-1.638;2023-01-13T06:57:23;25.10;;;4.10;;
19609;SDS011;9952;47.122;-1.638;2023-01-13T07:02:05;31.07;;;4.03;;
19609;SDS011;9952;47.122;-1.638;2023-01-13T07:06:46;31.27;;;6.97;;
19609;SDS011;9952;47.122;-1.638;2023-01-13T07:11:27;28.33;;;3.43;;
19609;SDS011;9952;47.122;-1.638;2023-01-13T07:16:08;32.37;;;5.50;;
19609;SDS011;9952;47.122;-1.638;2023-01-13T07:20:51;35.90;;;4.67;;
19609;SDS011;9952;47.122;-1.638;2023-01-13T07:25:35;34.17;;;5.13;;
19609;SDS011;9952;47.122;-1.638;2023-01-13T07:30:18;35.73;;;4.20;;
19609;SDS011;9952;47.122;-1.638;2023-01-13T07:35:00;33.10;;;5.13;;
19609;SDS011;9952;47.122;-1.638;2023-01-13T07:39:44;23.07;;;4.00;;
19609;SDS011;9952;47.122;-1.638;2023-01-13T07:44:25;31.53;;;4.10;;
19609;SDS011;9952;47.122;-1.638;2023-01-13T07:49:07;30.43;;;4.00;;
19609;SDS011;9952;47.122;-1.638;2023-01-13T07:53:48;42.33;;;6.27;;
19609;SDS011;9952;47.122;-1.638;2023-01-13T07:58:29;29.20;;;3.90;;
19609;SDS011;9952;47.122;-1.638;2023-01-13T08:03:12;33.83;;;4.23;;
19609;SDS011;9952;47.122;-1.638;2023-01-13T08:07:53;35.73;;;4.87;;
19609;SDS011;9952;47.122;-1.638;2023-01-13T08:12:35;29.07;;;4.43;;
19609;SDS011;9952;47.122;-1.638;2023-01-13T08:17:35;31.60;;;3.83;;
19609;SDS011;9952;47.122;-1.638;2023-01-13T08:22:16;39.13;;;4.70;;
19609;SDS011;9952;47.122;-1.638;2023-01-13T08:26:57;29.97;;;4.60;;
19609;SDS011;9952;47.122;-1.638;2023-01-13T08:31:38;31.53;;;4.57;;
19609;SDS011;9952;47.122;-1.638;2023-01-13T08:36:20;34.43;;;4.50;;
19609;SDS011;9952;47.122;-1.638;2023-01-13T08:41:11;38.27;;;6.70;;
19609;SDS011;9952;47.122;-1.638;2023-01-13T08:45:59;34.63;;;5.03;;
19609;SDS011;9952;47.122;-1.638;2023-01-13T08:50:42;34.67;;;5.40;;
19609;SDS011;9952;47.122;-1.638;2023-01-13T08:55:24;36.60;;;4.93;;
19609;SDS011;9952;47.122;-1.638;2023-01-13T09:00:06;28.13;;;4.87;;
19609;SDS011;9952;47.122;-1.638;2023-01-13T09:04:49;31.13;;;4.70;;
19609;SDS011;9952;47.122;-1.638;2023-01-13T09:09:30;38.10;;;5.07;;
19609;SDS011;9952;47.122;-1.638;2023-01-13T09:14:15;31.83;;;5.27;;
19609;SDS011;9952;47.122;-1.638;2023-01-13T09:19:01;33.40;;;5.37;;
19609;SDS011;9952;47.122;-1.638;2023-01-13T09:23:46;26.57;;;4.43;;
19609;SDS011;9952;47.122;-1.638;2023-01-13T09:28:27;38.10;;;4.20;;
19609;SDS011;9952;47.122;-1.638;2023-01-13T09:33:09;37.17;;;5.33;;
19609;SDS011;9952;47.122;-1.638;2023-01-13T09:38:10;33.93;;;4.47;;
19609;SDS011;9952;47.122;-1.638;2023-01-13T09:42:52;32.07;;;4.10;;
19609;SDS011;9952;47.122;-1.638;2023-01-13T09:48:17;39.83;;;5.10;;
19609;SDS011;9952;47.122;-1.638;2023-01-13T09:53:37;23.10;;;4.57;;
19609;SDS011;9952;47.122;-1.638;2023-01-13T09:58:24;38.77;;;4.63;;
19609;SDS011;9952;47.122;-1.638;2023-01-13T10:03:20;30.67;;;4.57;;
19609;SDS011;9952;47.122;-1.638;2023-01-13T10:08:04;28.30;;;4.17;;
19609;SDS011;9952;47.122;-1.638;2023-01-13T10:12:51;39.90;;;5.27;;
19609;SDS011;9952;47.122;-1.638;2023-01-13T10:17:55;35.80;;;4.83;;
19609;SDS011;9952;47.122;-1.638;2023-01-13T10:28:10;35.23;;;4.37;;
19609;SDS011;9952;47.122;-1.638;2023-01-13T10:37:36;25.37;;;4.70;;
19609;SDS011;9952;47.122;-1.638;2023-01-13T10:42:19;29.83;;;5.13;;
19609;SDS011;9952;47.122;-1.638;2023-01-13T10:47:02;30.37;;;4.93;;
19609;SDS011;9952;47.122;-1.638;2023-01-13T10:52:02;31.20;;;5.17;;
19609;SDS011;9952;47.122;-1.638;2023-01-13T10:57:19;27.90;;;4.30;;
19609;SDS011;9952;47.122;-1.638;2023-01-13T11:06:59;30.67;;;3.93;;
19609;SDS011;9952;47.122;-1.638;2023-01-13T11:11:42;17.43;;;3.17;;
19609;SDS011;9952;47.122;-1.638;2023-01-13T11:16:24;22.87;;;4.20;;
19609;SDS011;9952;47.122;-1.638;2023-01-13T11:21:08;28.40;;;4.57;;
19609;SDS011;9952;47.122;-1.638;2023-01-13T11:26:02;26.50;;;3.93;;
19609;SDS011;9952;47.122;-1.638;2023-01-13T11:30:52;25.77;;;5.13;;
19609;SDS011;9952;47.122;-1.638;2023-01-13T11:40:33;29.27;;;4.33;;
19609;SDS011;9952;47.122;-1.638;2023-01-13T11:45:20;25.83;;;3.80;;
19609;SDS011;9952;47.122;-1.638;2023-01-13T11:50:56;23.40;;;3.93;;
19609;SDS011;9952;47.122;-1.638;2023-01-13T12:25:44;21.13;;;3.20;;
19609;SDS011;9952;47.122;-1.638;2023-01-13T12:30:42;19.57;;;3.50;;
19609;SDS011;9952;47.122;-1.638;2023-01-13T12:35:58;25.83;;;3.47;;
19609;SDS011;9952;47.122;-1.638;2023-01-13T12:45:44;21.07;;;4.63;;
19609;SDS011;9952;47.122;-1.638;2023-01-13T12:55:10;19.43;;;3.73;;
19609;SDS011;9952;47.122;-1.638;2023-01-13T13:04:48;26.43;;;3.53;;
19609;SDS011;9952;47.122;-1.638;2023-01-13T13:09:32;20.00;;;2.93;;
19609;SDS011;9952;47.122;-1.638;2023-01-13T13:19:39;19.67;;;3.50;;
19609;SDS011;9952;47.122;-1.638;2023-01-13T13:24:21;21.57;;;2.80;;
19609;SDS011;9952;47.122;-1.638;2023-01-13T13:29:06;17.93;;;2.27;;
19609;SDS011;9952;47.122;-1.638;2023-01-13T13:39:48;17.07;;;2.47;;
19609;SDS011;9952;47.122;-1.638;2023-01-13T13:44:30;23.00;;;2.60;;
19609;SDS011;9952;47.122;-1.638;2023-01-13T13:49:38;20.10;;;2.87;;
19609;SDS011;9952;47.122;-1.638;2023-01-13T13:54:25;16.00;;;2.57;;
19609;SDS011;9952;47.122;-1.638;2023-01-13T13:59:09;18.20;;;2.50;;
19609;SDS011;9952;47.122;-1.638;2023-01-13T14:04:05;13.27;;;1.77;;
19609;SDS011;9952;47.122;-1.638;2023-01-13T14:08:52;14.90;;;1.93;;
19609;SDS011;9952;47.122;-1.638;2023-01-13T14:13:33;13.27;;;2.20;;
19609;SDS011;9952;47.122;-1.638;2023-01-13T14:18:18;10.33;;;1.77;;
19609;SDS011;9952;47.122;-1.638;2023-01-13T14:23:01;11.23;;;1.50;;
19609;SDS011;9952;47.122;-1.638;2023-01-13T14:27:44;15.10;;;1.63;;
19609;SDS011;9952;47.122;-1.638;2023-01-13T14:32:30;11.30;;;1.03;;
19609;SDS011;9952;47.122;-1.638;2023-01-13T14:37:21;5.63;;;0.87;;
19609;SDS011;9952;47.122;-1.638;2023-01-13T14:42:14;6.00;;;0.80;;
19609;SDS011;9952;47.122;-1.638;2023-01-13T14:46:58;10.60;;;1.07;;
19609;SDS011;9952;47.122;-1.638;2023-01-13T14:57:14;7.03;;;1.13;;
19609;SDS011;9952;47.122;-1.638;2023-01-13T15:01:57;5.30;;;0.60;;
19609;SDS011;9952;47.122;-1.638;2023-01-13T15:06:39;5.23;;;0.63;;
19609;SDS011;9952;47.122;-1.638;2023-01-13T15:11:26;6.57;;;0.90;;
19609;SDS011;9952;47.122;-1.638;2023-01-13T15:16:19;6.33;;;1.13;;
19609;SDS011;9952;47.122;-1.638;2023-01-13T15:21:04;11.57;;;1.20;;
19609;SDS011;9952;47.122;-1.638;2023-01-13T15:25:45;5.47;;;1.13;;
19609;SDS011;9952;47.122;-1.638;2023-01-13T15:30:28;12.10;;;1.50;;
19609;SDS011;9952;47.122;-1.638;2023-01-13T15:35:12;7.07;;;1.13;;
19609;SDS011;9952;47.122;-1.638;2023-01-13T15:39:57;8.77;;;0.87;;
19609;SDS011;9952;47.122;-1.638;2023-01-13T15:44:39;5.13;;;0.90;;
19609;SDS011;9952;47.122;-1.638;2023-01-13T15:49:40;7.03;;;1.10;;
19609;SDS011;9952;47.122;-1.638;2023-01-13T15:54:23;6.47;;;1.50;;
19609;SDS011;9952;47.122;-1.638;2023-01-13T15:59:04;8.53;;;1.30;;
19609;SDS011;9952;47.122;-1.638;2023-01-13T16:03:55;8.90;;;1.20;;
19609;SDS011;9952;47.122;-1.638;2023-01-13T16:08:36;11.27;;;1.70;;
19609;SDS011;9952;47.122;-1.638;2023-01-13T16:13:18;10.97;;;2.07;;
19609;SDS011;9952;47.122;-1.638;2023-01-13T16:18:00;16.87;;;2.60;;
19609;SDS011;9952;47.122;-1.638;2023-01-13T16:22:43;18.57;;;2.87;;
19609;SDS011;9952;47.122;-1.638;2023-01-13T16:27:27;14.97;;;2.20;;
19609;SDS011;9952;47.122;-1.638;2023-01-13T16:32:09;21.67;;;2.60;;
19609;SDS011;9952;47.122;-1.638;2023-01-13T16:36:51;17.10;;;2.30;;
19609;SDS011;9952;47.122;-1.638;2023-01-13T16:41:33;19.53;;;3.00;;
19609;SDS011;9952;47.122;-1.638;2023-01-13T16:46:15;17.03;;;2.97;;
19609;SDS011;9952;47.122;-1.638;2023-01-13T16:51:08;20.53;;;3.17;;
19609;SDS011;9952;47.122;-1.638;2023-01-13T16:55:50;30.83;;;3.50;;
19609;SDS011;9952;47.122;-1.638;2023-01-13T17:00:32;26.67;;;3.23;;
19609;SDS011;9952;47.122;-1.638;2023-01-13T17:05:13;27.00;;;3.87;;
19609;SDS011;9952;47.122;-1.638;2023-01-13T17:09:55;28.57;;;3.83;;
19609;SDS011;9952;47.122;-1.638;2023-01-13T17:14:37;25.03;;;3.80;;
19609;SDS011;9952;47.122;-1.638;2023-01-13T17:19:19;23.80;;;4.07;;
19609;SDS011;9952;47.122;-1.638;2023-01-13T17:24:01;22.97;;;3.23;;
19609;SDS011;9952;47.122;-1.638;2023-01-13T17:28:45;22.33;;;3.80;;
19609;SDS011;9952;47.122;-1.638;2023-01-13T17:33:26;28.80;;;3.23;;
19609;SDS011;9952;47.122;-1.638;2023-01-13T17:38:16;24.10;;;3.53;;
19609;SDS011;9952;47.122;-1.638;2023-01-13T17:42:57;27.30;;;3.37;;
19609;SDS011;9952;47.122;-1.638;2023-01-13T17:47:38;22.73;;;3.80;;
19609;SDS011;9952;47.122;-1.638;2023-01-13T17:52:24;26.03;;;4.03;;
19609;SDS011;9952;47.122;-1.638;2023-01-13T17:57:06;22.70;;;3.43;;
19609;SDS011;9952;47.122;-1.638;2023-01-13T18:01:54;26.67;;;3.83;;
19609;SDS011;9952;47.122;-1.638;2023-01-13T18:06:37;25.80;;;4.30;;
19609;SDS011;9952;47.122;-1.638;2023-01-13T18:11:18;29.20;;;4.17;;
19609;SDS011;9952;47.122;-1.638;2023-01-13T18:16:01;28.10;;;3.20;;
19609;SDS011;9952;47.122;-1.638;2023-01-13T18:21:06;21.17;;;3.23;;
19609;SDS011;9952;47.122;-1.638;2023-01-13T18:26:15;18.50;;;3.20;;
19609;SDS011;9952;47.122;-1.638;2023-01-13T18:31:17;27.17;;;3.20;;
19609;SDS011;9952;47.122;-1.638;2023-01-13T18:36:04;19.67;;;3.43;;
19609;SDS011;9952;47.122;-1.638;2023-01-13T18:40:46;29.73;;;3.37;;
19609;SDS011;9952;47.122;-1.638;2023-01-13T18:45:28;24.37;;;4.37;;
19609;SDS011;9952;47.122;-1.638;2023-01-13T18:50:12;33.73;;;4.87;;
19609;SDS011;9952;47.122;-1.638;2023-01-13T18:54:53;28.37;;;3.80;;
19609;SDS011;9952;47.122;-1.638;2023-01-13T18:59:34;21.93;;;3.30;;
19609;SDS011;9952;47.122;-1.638;2023-01-13T19:04:16;28.10;;;2.77;;
19609;SDS011;9952;47.122;-1.638;2023-01-13T19:08:58;23.77;;;3.87;;
19609;SDS011;9952;47.122;-1.638;2023-01-13T19:13:41;18.60;;;2.97;;
19609;SDS011;9952;47.122;-1.638;2023-01-13T19:18:22;28.07;;;3.80;;
19609;SDS011;9952;47.122;-1.638;2023-01-13T19:23:03;25.80;;;3.37;;
19609;SDS011;9952;47.122;-1.638;2023-01-13T19:27:45;25.80;;;3.90;;
19609;SDS011;9952;47.122;-1.638;2023-01-13T19:32:27;23.87;;;3.60;;
19609;SDS011;9952;47.122;-1.638;2023-01-13T19:37:09;17.87;;;3.30;;
19609;SDS011;9952;47.122;-1.638;2023-01-13T19:41:51;22.53;;;3.80;;
19609;SDS011;9952;47.122;-1.638;2023-01-13T19:46:50;23.50;;;3.37;;
19609;SDS011;9952;47.122;-1.638;2023-01-13T19:51:32;22.07;;;3.27;;
19609;SDS011;9952;47.122;-1.638;2023-01-13T19:56:13;21.67;;;3.17;;
19609;SDS011;9952;47.122;-1.638;2023-01-13T20:00:54;23.07;;;3.37;;
19609;SDS011;9952;47.122;-1.638;2023-01-13T20:05:35;18.10;;;3.43;;
19609;SDS011;9952;47.122;-1.638;2023-01-13T20:10:18;26.47;;;3.80;;
19609;SDS011;9952;47.122;-1.638;2023-01-13T20:15:02;26.50;;;3.67;;
19609;SDS011;9952;47.122;-1.638;2023-01-13T20:19:43;21.90;;;3.47;;
19609;SDS011;9952;47.122;-1.638;2023-01-13T20:24:24;16.90;;;2.50;;
19609;SDS011;9952;47.122;-1.638;2023-01-13T20:29:05;22.17;;;3.33;;
19609;SDS011;9952;47.122;-1.638;2023-01-13T20:33:49;30.20;;;3.40;;
19609;SDS011;9952;47.122;-1.638;2023-01-13T20:38:31;18.93;;;2.60;;
19609;SDS011;9952;47.122;-1.638;2023-01-13T20:43:17;21.73;;;4.40;;
19609;SDS011;9952;47.122;-1.638;2023-01-13T20:47:59;28.07;;;3.90;;
19609;SDS011;9952;47.122;-1.638;2023-01-13T20:52:40;24.67;;;3.83;;
19609;SDS011;9952;47.122;-1.638;2023-01-13T20:57:21;24.57;;;4.70;;
19609;SDS011;9952;47.122;-1.638;2023-01-13T21:02:03;30.93;;;3.43;;
19609;SDS011;9952;47.122;-1.638;2023-01-13T21:06:45;20.67;;;3.87;;
19609;SDS011;9952;47.122;-1.638;2023-01-13T21:11:27;32.80;;;4.23;;
19609;SDS011;9952;47.122;-1.638;2023-01-13T21:16:26;30.80;;;4.90;;
19609;SDS011;9952;47.122;-1.638;2023-01-13T21:21:07;26.83;;;3.77;;
19609;SDS011;9952;47.122;-1.638;2023-01-13T21:25:52;28.27;;;3.53;;
19609;SDS011;9952;47.122;-1.638;2023-01-13T21:30:35;32.60;;;4.23;;
19609;SDS011;9952;47.122;-1.638;2023-01-13T21:35:18;28.93;;;4.43;;
19609;SDS011;9952;47.122;-1.638;2023-01-13T21:39:59;18.17;;;4.23;;
19609;SDS011;9952;47.122;-1.638;2023-01-13T21:44:40;26.07;;;4.73;;
19609;SDS011;9952;47.122;-1.638;2023-01-13T21:49:40;21.50;;;3.13;;
19609;SDS011;9952;47.122;-1.638;2023-01-13T21:54:23;21.83;;;3.00;;
19609;SDS011;9952;47.122;-1.638;2023-01-13T21:59:04;22.47;;;2.97;;
19609;SDS011;9952;47.122;-1.638;2023-01-13T22:03:45;20.23;;;2.87;;
19609;SDS011;9952;47.122;-1.638;2023-01-13T22:09:02;20.73;;;2.83;;
19609;SDS011;9952;47.122;-1.638;2023-01-13T22:14:03;29.17;;;3.63;;
19609;SDS011;9952;47.122;-1.638;2023-01-13T22:18:45;21.70;;;2.97;;
19609;SDS011;9952;47.122;-1.638;2023-01-13T22:23:27;24.67;;;3.73;;
19609;SDS011;9952;47.122;-1.638;2023-01-13T22:28:08;17.23;;;2.80;;
19609;SDS011;9952;47.122;-1.638;2023-01-13T22:32:52;24.40;;;3.20;;
19609;SDS011;9952;47.122;-1.638;2023-01-13T22:37:34;26.73;;;2.80;;
19609;SDS011;9952;47.122;-1.638;2023-01-13T22:42:15;18.73;;;2.67;;
19609;SDS011;9952;47.122;-1.638;2023-01-13T22:47:17;17.37;;;2.80;;
19609;SDS011;9952;47.122;-1.638;2023-01-13T22:51:58;22.50;;;2.90;;
19609;SDS011;9952;47.122;-1.638;2023-01-13T22:56:39;29.07;;;3.60;;
19609;SDS011;9952;47.122;-1.638;2023-01-13T23:01:21;20.83;;;2.80;;
19609;SDS011;9952;47.122;-1.638;2023-01-13T23:06:03;28.83;;;3.80;;
19609;SDS011;9952;47.122;-1.638;2023-01-13T23:10:45;25.47;;;3.17;;
19609;SDS011;9952;47.122;-1.638;2023-01-13T23:15:26;18.30;;;3.03;;
19609;SDS011;9952;47.122;-1.638;2023-01-13T23:20:07;24.77;;;3.30;;
19609;SDS011;9952;47.122;-1.638;2023-01-13T23:24:49;24.60;;;2.83;;
19609;SDS011;9952;47.122;-1.638;2023-01-13T23:29:30;29.13;;;4.43;;
19609;SDS011;9952;47.122;-1.638;2023-01-13T23:34:11;25.03;;;3.80;;
19609;SDS011;9952;47.122;-1.638;2023-01-13T23:38:53;23.57;;;3.20;;
19609;SDS011;9952;47.122;-1.638;2023-01-13T23:43:34;24.20;;;2.93;;
19609;SDS011;9952;47.122;-1.638;2023-01-13T23:48:17;26.50;;;4.07;;
19609;SDS011;9952;47.122;-1.638;2023-01-13T23:52:58;24.87;;;3.40;;
19609;SDS011;9952;47.122;-1.638;2023-01-13T23:57:39;25.80;;;3.67;;
